Happyland, Minnesota
Current Conditions -  °F | °C
As of 5:55 AM on Sunday 23 Nov 2014 (Local Time) from KINL Reporting Station
Haze Haze  
Wind Chill: 27°   Ceiling: 300
Heat Index: 32°   Visibility: 1.2mi
Dew Point: 31°   Wind: 5mph
Humidity: 96%   Direction: 120°ESE
Pressure: 29.39"   Gusts: NA
Location:  48.2756°N, 93.4004°W
Report Text: KINL 231155Z AUTO 12004KT 1 1/4SM BR OVC003 00/M01 A2939 RMK AO2 SLP966 T00001006 10011 20000 56011 $
Loading
Personal Weather Stations






























Interactive Weather Map New forecast layout! Learn more

10-Day Weather Forecast

Advertisements
Track Severe Weather on mobile